Terminal Aerodrome Forecast
Issued by NWS Springfield, MO

Home | Current Version | Previous Version | Text Only | Print | Product List | Glossary On
Versions: 1 2 3 4 5 6 7 8 9 10 11 12 13 14 15 16 17 18 19 20 21 22
093
FTUS43 KSGF 271720
TAFSGF
TAF
KSGF 271720Z 2718/2818 22008KT P6SM SCT050 OVC100
     FM272200 27010KT P6SM VCTS BKN050CB
     FM280300 01006KT P6SM BKN035 OVC110
     FM280900 01010KT P6SM SCT007 BKN015 OVC025=

USA.gov is the U.S. government's official web portal to all federal, state and local government web resources and services.